Time;durP1;ratioP1;P1;durP2;ratioP2;P2;SDS_P1;SDS_P2;PMS_P1;PMS_P2;Temp;Humidity;BMP_temperature;BMP_pressure;BME280_temperature;BME280_humidity;BME280_pressure;Samples;Min_cycle;Max_cycle;Signal;HPM_P1;HPM_P2
2022/10/27 00:00:22;;;;;;;25.15;13.38;;;;;;;;;;5073859;28;20024;-74
2022/10/27 00:02:48;;;;;;;27.13;12.60;;;;;;;;;;5072532;28;20031;-74
2022/10/27 00:05:14;;;;;;;33.20;14.13;;;;;;;;;;5073654;28;20171;-76
2022/10/27 00:07:41;;;;;;;31.83;13.23;;;;;;;;;;5072577;28;20043;-74
2022/10/27 00:10:07;;;;;;;26.02;12.80;;;;;;;;;;5073692;28;20039;-74
2022/10/27 00:12:34;;;;;;;30.63;12.75;;;;;;;;;;5074087;28;20035;-74
2022/10/27 00:15:00;;;;;;;28.30;13.43;;;;;;;;;;5073534;28;20044;-76
2022/10/27 00:17:30;;;;;;;25.70;13.10;;;;;;;;;;5073655;28;20038;-76
2022/10/27 00:19:56;;;;;;;27.90;13.35;;;;;;;;;;5073263;28;20383;-76
2022/10/27 00:22:22;;;;;;;28.75;13.60;;;;;;;;;;5073506;28;20035;-76
2022/10/27 00:24:49;;;;;;;27.40;12.93;;;;;;;;;;5073883;28;20370;-74
2022/10/27 00:27:15;;;;;;;25.85;12.48;;;;;;;;;;5072623;28;20531;-74
2022/10/27 00:29:41;;;;;;;27.90;12.13;;;;;;;;;;5073266;28;20032;-74
2022/10/27 00:32:08;;;;;;;26.73;12.80;;;;;;;;;;5072199;28;20493;-73
2022/10/27 00:34:34;;;;;;;26.85;13.65;;;;;;;;;;5072948;28;20020;-74
2022/10/27 00:37:00;;;;;;;24.40;12.73;;;;;;;;;;5073325;28;20012;-74
2022/10/27 00:39:27;;;;;;;26.55;13.60;;;;;;;;;;5073191;28;20503;-73
2022/10/27 00:41:53;;;;;;;28.23;14.07;;;;;;;;;;5073098;28;20017;-73
2022/10/27 00:44:32;;;;;;;26.45;14.25;;;;;;;;;;5073328;28;20097;-74
2022/10/27 00:47:01;;;;;;;24.42;13.68;;;;;;;;;;5072884;28;20025;-74
2022/10/27 00:49:30;;;;;;;26.17;13.10;;;;;;;;;;5073156;28;20039;-76
2022/10/27 00:51:59;;;;;;;30.38;14.63;;;;;;;;;;5072956;28;20020;-76
2022/10/27 00:54:27;;;;;;;21.52;13.80;;;;;;;;;;5072946;28;20037;-76
2022/10/27 00:56:55;;;;;;;27.20;13.68;;;;;;;;;;5072975;28;20050;-76
2022/10/27 00:59:21;;;;;;;25.10;13.40;;;;;;;;;;5073244;28;20032;-75
2022/10/27 01:01:49;;;;;;;28.48;14.40;;;;;;;;;;5071200;28;20036;-76
2022/10/27 01:04:17;;;;;;;27.40;13.65;;;;;;;;;;5072695;28;20021;-76
2022/10/27 01:06:43;;;;;;;34.97;14.80;;;;;;;;;;5071529;28;20044;-75
2022/10/27 01:09:11;;;;;;;23.05;13.90;;;;;;;;;;5072780;28;20508;-74
2022/10/27 01:11:38;;;;;;;24.27;13.02;;;;;;;;;;5072498;28;20488;-73
2022/10/27 01:14:04;;;;;;;23.30;13.63;;;;;;;;;;5072348;28;20451;-73
2022/10/27 01:16:40;;;;;;;22.75;12.98;;;;;;;;;;5072226;28;20020;-74
2022/10/27 01:19:24;;;;;;;23.90;13.00;;;;;;;;;;5072263;28;20447;-76
2022/10/27 01:21:51;;;;;;;34.22;13.23;;;;;;;;;;5072310;28;20027;-76
2022/10/27 01:24:36;;;;;;;22.88;13.77;;;;;;;;;;5072814;28;20491;-75
2022/10/27 01:27:05;;;;;;;30.33;13.20;;;;;;;;;;5072201;28;20037;-76
2022/10/27 01:29:43;;;;;;;25.48;14.95;;;;;;;;;;5071257;28;20033;-76
2022/10/27 01:32:18;;;;;;;27.20;14.60;;;;;;;;;;5071944;28;20024;-75
2022/10/27 01:34:52;;;;;;;29.35;14.93;;;;;;;;;;5072390;28;20033;-76
2022/10/27 01:37:18;;;;;;;28.23;15.43;;;;;;;;;;5072502;28;20106;-76
2022/10/27 01:39:56;;;;;;;24.52;13.90;;;;;;;;;;5071966;28;20035;-76
2022/10/27 01:42:27;;;;;;;28.00;14.70;;;;;;;;;;5072144;28;20033;-76
2022/10/27 01:44:53;;;;;;;;;;;;;;;;;;5071941;28;20035;-73
2022/10/27 01:47:20;;;;;;;24.05;13.63;;;;;;;;;;5071100;28;20383;-73
2022/10/27 01:49:46;;;;;;;22.52;12.95;;;;;;;;;;5072120;28;20034;-74
2022/10/27 01:52:31;;;;;;;26.02;13.18;;;;;;;;;;5071737;28;20028;-74
2022/10/27 01:54:57;;;;;;;25.38;13.88;;;;;;;;;;5071917;28;20013;-76
2022/10/27 01:57:34;;;;;;;25.52;13.20;;;;;;;;;;5071695;28;20025;-76
2022/10/27 02:00:02;;;;;;;24.20;13.40;;;;;;;;;;5071475;28;20047;-74
2022/10/27 02:02:43;;;;;;;26.75;13.43;;;;;;;;;;5071728;28;20029;-73
2022/10/27 02:05:28;;;;;;;23.80;12.85;;;;;;;;;;5071862;28;20101;-76
2022/10/27 02:07:54;;;;;;;26.60;13.52;;;;;;;;;;5071567;28;20054;-76
2022/10/27 02:10:26;;;;;;;24.90;13.45;;;;;;;;;;5071855;28;20070;-76
2022/10/27 02:12:53;;;;;;;22.15;11.90;;;;;;;;;;5071908;28;20035;-74
2022/10/27 02:15:40;;;;;;;22.02;13.23;;;;;;;;;;5071398;28;20032;-74
2022/10/27 02:18:08;;;;;;;20.50;12.70;;;;;;;;;;5071092;28;20025;-76
2022/10/27 02:20:37;;;;;;;22.20;12.05;;;;;;;;;;5071731;28;20396;-76
2022/10/27 02:23:06;;;;;;;22.70;12.27;;;;;;;;;;5071317;28;20040;-74
2022/10/27 02:25:36;;;;;;;24.88;11.45;;;;;;;;;;5071615;28;20220;-76
2022/10/27 02:28:05;;;;;;;19.77;12.48;;;;;;;;;;5071451;28;20036;-76
2022/10/27 02:30:32;;;;;;;22.05;13.23;;;;;;;;;;5071216;28;20019;-76
2022/10/27 02:32:58;;;;;;;24.02;12.75;;;;;;;;;;5071194;28;20028;-76
2022/10/27 02:35:25;;;;;;;20.23;12.90;;;;;;;;;;5071327;28;20036;-74
2022/10/27 02:37:51;;;;;;;20.77;12.43;;;;;;;;;;5071353;28;20035;-74
2022/10/27 02:40:17;;;;;;;22.13;12.25;;;;;;;;;;5071256;28;20473;-73
2022/10/27 02:42:44;;;;;;;27.63;12.88;;;;;;;;;;5071450;28;20036;-74
2022/10/27 02:45:10;;;;;;;24.88;12.23;;;;;;;;;;5071166;28;20133;-74
2022/10/27 02:47:37;;;;;;;31.55;13.63;;;;;;;;;;5070962;28;20389;-74
2022/10/27 02:50:03;;;;;;;26.73;11.65;;;;;;;;;;5071145;28;20027;-73
2022/10/27 02:52:29;;;;;;;28.65;12.32;;;;;;;;;;5075033;28;20024;-74
2022/10/27 02:54:56;;;;;;;30.27;12.38;;;;;;;;;;5075238;28;20380;-74
2022/10/27 02:57:22;;;;;;;25.38;12.00;;;;;;;;;;5075490;28;20025;-74
2022/10/27 02:59:48;;;;;;;22.30;11.68;;;;;;;;;;5075496;28;20473;-73
2022/10/27 03:02:15;;;;;;;21.42;12.05;;;;;;;;;;5075482;28;20054;-74
2022/10/27 03:04:41;;;;;;;25.38;11.63;;;;;;;;;;5074149;28;20025;-73
2022/10/27 03:07:07;;;;;;;28.45;12.68;;;;;;;;;;5075081;28;20036;-74
2022/10/27 03:09:34;;;;;;;19.98;11.57;;;;;;;;;;5075202;28;20020;-74
2022/10/27 03:12:00;;;;;;;21.02;12.52;;;;;;;;;;5074558;28;20030;-74
2022/10/27 03:14:26;;;;;;;26.85;13.23;;;;;;;;;;5074926;28;20051;-73
2022/10/27 03:16:53;;;;;;;24.67;12.60;;;;;;;;;;5075340;28;20020;-74
2022/10/27 03:19:19;;;;;;;21.73;12.13;;;;;;;;;;5074667;28;20412;-74
2022/10/27 03:21:45;;;;;;;20.55;11.95;;;;;;;;;;5074586;28;20036;-74
2022/10/27 03:24:12;;;;;;;18.95;11.57;;;;;;;;;;5074768;28;20029;-74
2022/10/27 03:26:39;;;;;;;18.10;10.93;;;;;;;;;;5074276;28;20029;-73
2022/10/27 03:29:05;;;;;;;19.73;12.00;;;;;;;;;;5074526;28;20523;-73
2022/10/27 03:31:32;;;;;;;62.53;12.43;;;;;;;;;;5074494;28;20021;-73
2022/10/27 03:33:58;;;;;;;20.95;13.20;;;;;;;;;;5074601;28;20031;-73
2022/10/27 03:36:24;;;;;;;22.02;11.20;;;;;;;;;;5074627;28;20396;-73
2022/10/27 03:38:50;;;;;;;21.00;12.88;;;;;;;;;;5073404;28;20020;-73
2022/10/27 03:41:17;;;;;;;21.85;12.63;;;;;;;;;;5074165;28;20016;-74
2022/10/27 03:43:43;;;;;;;31.65;13.90;;;;;;;;;;5074256;28;20432;-74
2022/10/27 03:46:10;;;;;;;37.17;12.75;;;;;;;;;;5074331;28;20065;-73
2022/10/27 03:48:36;;;;;;;52.78;14.35;;;;;;;;;;5074258;28;20050;-73
2022/10/27 03:51:03;;;;;;;40.28;15.07;;;;;;;;;;5074361;28;20039;-74
2022/10/27 03:53:29;;;;;;;24.55;14.50;;;;;;;;;;5074245;28;20058;-74
2022/10/27 03:55:55;;;;;;;36.05;14.02;;;;;;;;;;5074089;28;20029;-74
2022/10/27 03:58:22;;;;;;;22.45;13.15;;;;;;;;;;5074233;28;20790;-73
2022/10/27 04:00:48;;;;;;;22.70;12.48;;;;;;;;;;5073884;28;20028;-74
2022/10/27 04:03:15;;;;;;;21.50;11.63;;;;;;;;;;5071451;28;20020;-74
2022/10/27 04:05:41;;;;;;;15.48;11.02;;;;;;;;;;5073030;28;20038;-74
2022/10/27 04:08:07;;;;;;;20.95;11.15;;;;;;;;;;5073679;28;20406;-74
2022/10/27 04:10:34;;;;;;;18.38;11.15;;;;;;;;;;5073834;28;20081;-74
2022/10/27 04:13:00;;;;;;;19.52;11.45;;;;;;;;;;5072406;28;20448;-74
2022/10/27 04:15:27;;;;;;;20.90;11.88;;;;;;;;;;5073578;28;20026;-74
2022/10/27 04:17:55;;;;;;;23.45;10.82;;;;;;;;;;5073797;28;20028;-76
2022/10/27 04:20:21;;;;;;;31.20;10.88;;;;;;;;;;5053546;28;20037;-76
2022/10/27 04:22:48;;;;;;;70.85;12.18;;;;;;;;;;5062607;28;20484;-74
2022/10/27 04:25:14;;;;;;;38.92;12.50;;;;;;;;;;5073405;28;20460;-74
2022/10/27 04:27:41;;;;;;;28.65;12.45;;;;;;;;;;5073451;28;20016;-73
2022/10/27 04:30:07;;;;;;;21.13;11.43;;;;;;;;;;5073740;28;20029;-73
2022/10/27 04:32:33;;;;;;;38.13;11.88;;;;;;;;;;5073322;28;20478;-74
2022/10/27 04:35:00;;;;;;;19.02;11.30;;;;;;;;;;5073494;28;20029;-74
2022/10/27 04:37:26;;;;;;;30.95;10.98;;;;;;;;;;5073364;28;20025;-74
2022/10/27 04:39:53;;;;;;;18.75;10.65;;;;;;;;;;5072982;28;20400;-74
2022/10/27 04:42:19;;;;;;;26.70;11.40;;;;;;;;;;5073367;28;20034;-76
2022/10/27 04:44:46;;;;;;;30.02;11.48;;;;;;;;;;5073128;28;20481;-76
2022/10/27 04:47:12;;;;;;;22.58;11.98;;;;;;;;;;5073571;28;20036;-74
2022/10/27 04:49:38;;;;;;;21.13;11.18;;;;;;;;;;5073397;28;20024;-74
2022/10/27 04:52:05;;;;;;;18.40;11.48;;;;;;;;;;5072964;28;20035;-74
2022/10/27 04:54:31;;;;;;;20.40;12.02;;;;;;;;;;5072644;28;20481;-74
2022/10/27 04:56:57;;;;;;;17.95;11.40;;;;;;;;;;5071791;28;20408;-74
2022/10/27 04:59:24;;;;;;;27.80;12.63;;;;;;;;;;5072928;28;20017;-74
2022/10/27 05:01:50;;;;;;;19.73;11.23;;;;;;;;;;5072799;28;20054;-74
2022/10/27 05:04:16;;;;;;;23.52;11.45;;;;;;;;;;5072679;28;20016;-73
2022/10/27 05:06:43;;;;;;;19.48;12.18;;;;;;;;;;5072716;28;20028;-74
2022/10/27 05:09:09;;;;;;;22.73;12.32;;;;;;;;;;5072554;28;20058;-74
2022/10/27 05:11:35;;;;;;;21.30;12.10;;;;;;;;;;5072542;28;20078;-73
2022/10/27 05:14:02;;;;;;;19.30;10.80;;;;;;;;;;5072258;28;20403;-74
2022/10/27 05:16:28;;;;;;;18.45;10.68;;;;;;;;;;5072457;28;20024;-73
2022/10/27 05:18:54;;;;;;;19.00;10.27;;;;;;;;;;5072332;28;20035;-74
2022/10/27 05:21:21;;;;;;;24.15;10.30;;;;;;;;;;5072466;28;20023;-74
2022/10/27 05:23:47;;;;;;;16.80;10.25;;;;;;;;;;5071876;28;20024;-73
2022/10/27 05:26:13;;;;;;;17.63;9.70;;;;;;;;;;5071166;28;20398;-73
2022/10/27 05:28:42;;;;;;;20.10;9.73;;;;;;;;;;5071053;28;20028;-73
2022/10/27 05:31:09;;;;;;;21.65;10.50;;;;;;;;;;5072539;28;20335;-74
2022/10/27 05:33:35;;;;;;;15.68;9.95;;;;;;;;;;5072413;28;20030;-74
2022/10/27 05:36:01;;;;;;;20.35;10.82;;;;;;;;;;5072095;28;20393;-72
2022/10/27 05:38:28;;;;;;;20.50;10.45;;;;;;;;;;5071717;28;20478;-72
2022/10/27 05:40:57;;;;;;;16.65;10.45;;;;;;;;;;5072200;28;20029;-73
2022/10/27 05:43:24;;;;;;;20.00;9.85;;;;;;;;;;5072087;28;20021;-72
2022/10/27 05:45:51;;;;;;;16.20;9.82;;;;;;;;;;5071969;28;20392;-72
2022/10/27 05:48:17;;;;;;;16.85;10.45;;;;;;;;;;5072025;28;20040;-73
2022/10/27 05:50:43;;;;;;;15.25;10.05;;;;;;;;;;5071887;28;20021;-74
2022/10/27 05:53:10;;;;;;;17.55;9.95;;;;;;;;;;5071744;28;20020;-73
2022/10/27 05:55:36;;;;;;;16.35;10.20;;;;;;;;;;5071940;28;20033;-74
2022/10/27 05:58:04;;;;;;;18.17;10.43;;;;;;;;;;5071779;28;20028;-73
2022/10/27 06:00:32;;;;;;;24.00;10.95;;;;;;;;;;5071967;28;20020;-73
2022/10/27 06:02:59;;;;;;;18.48;10.95;;;;;;;;;;5071703;28;20034;-72
2022/10/27 06:05:26;;;;;;;24.85;11.80;;;;;;;;;;5071588;28;20101;-72
2022/10/27 06:07:52;;;;;;;19.08;11.18;;;;;;;;;;5070066;28;20036;-75
2022/10/27 06:10:19;;;;;;;15.82;10.13;;;;;;;;;;5071549;28;20020;-75
2022/10/27 06:12:45;;;;;;;13.10;9.95;;;;;;;;;;5071504;28;20034;-74
2022/10/27 06:15:12;;;;;;;15.15;10.35;;;;;;;;;;5070173;28;20046;-73
2022/10/27 06:17:38;;;;;;;13.30;9.40;;;;;;;;;;5071515;28;20032;-73
2022/10/27 06:20:05;;;;;;;15.55;10.68;;;;;;;;;;5071627;28;20021;-73
2022/10/27 06:22:31;;;;;;;18.20;10.00;;;;;;;;;;5071378;28;20028;-73
2022/10/27 06:24:57;;;;;;;15.52;10.50;;;;;;;;;;5071015;28;20023;-74
2022/10/27 06:27:24;;;;;;;18.42;10.23;;;;;;;;;;5070617;28;20029;-74
2022/10/27 06:29:50;;;;;;;15.85;9.85;;;;;;;;;;5077196;28;20027;-75
2022/10/27 06:32:16;;;;;;;19.50;10.38;;;;;;;;;;5069816;28;20043;-74
2022/10/27 06:34:43;;;;;;;23.30;10.98;;;;;;;;;;5069559;28;20039;-73
2022/10/27 06:37:09;;;;;;;14.23;9.77;;;;;;;;;;5067495;28;20028;-74
2022/10/27 06:39:35;;;;;;;18.88;9.95;;;;;;;;;;5070886;28;20046;-73
2022/10/27 06:42:01;;;;;;;20.88;10.50;;;;;;;;;;5070644;28;20497;-74
2022/10/27 06:44:28;;;;;;;18.77;11.02;;;;;;;;;;5070774;28;20032;-73
2022/10/27 06:46:54;;;;;;;17.45;9.98;;;;;;;;;;5070555;28;20396;-74
2022/10/27 06:49:20;;;;;;;24.73;10.73;;;;;;;;;;5070327;28;20035;-76
2022/10/27 06:51:47;;;;;;;19.70;10.10;;;;;;;;;;5070575;28;20025;-73
2022/10/27 06:54:13;;;;;;;18.55;9.95;;;;;;;;;;5071034;28;20031;-74
2022/10/27 06:56:39;;;;;;;17.42;10.10;;;;;;;;;;5070374;28;20035;-73
2022/10/27 06:59:06;;;;;;;33.08;12.20;;;;;;;;;;5070528;28;20025;-75
2022/10/27 07:01:32;;;;;;;22.45;10.40;;;;;;;;;;5070353;28;20035;-74
2022/10/27 07:03:59;;;;;;;20.85;9.93;;;;;;;;;;5070675;28;20037;-76
2022/10/27 07:06:25;;;;;;;45.08;11.60;;;;;;;;;;5071085;28;20085;-76
2022/10/27 07:08:51;;;;;;;19.27;9.55;;;;;;;;;;5070362;28;20502;-74
2022/10/27 07:11:18;;;;;;;13.77;8.73;;;;;;;;;;5070429;28;20082;-73
2022/10/27 07:13:44;;;;;;;12.88;8.73;;;;;;;;;;5070522;28;20037;-74
2022/10/27 07:16:11;;;;;;;143.82;21.13;;;;;;;;;;5070387;28;20490;-75
2022/10/27 07:18:37;;;;;;;106.50;17.75;;;;;;;;;;5070461;28;20031;-73
2022/10/27 07:21:04;;;;;;;19.05;8.98;;;;;;;;;;5070210;28;20024;-73
2022/10/27 07:23:30;;;;;;;20.27;8.55;;;;;;;;;;5070579;28;20016;-76
2022/10/27 07:25:57;;;;;;;13.85;8.38;;;;;;;;;;5070449;28;20039;-77
2022/10/27 07:28:23;;;;;;;55.97;11.38;;;;;;;;;;5070288;28;20041;-75
2022/10/27 07:30:53;;;;;;;12.07;6.63;;;;;;;;;;5069991;28;20017;-75
2022/10/27 07:33:19;;;;;;;35.70;9.68;;;;;;;;;;5069835;28;20036;-75
2022/10/27 07:35:49;;;;;;;38.55;8.93;;;;;;;;;;5068120;28;20023;-75
2022/10/27 07:38:16;;;;;;;45.20;10.73;;;;;;;;;;5073193;28;20024;-76
2022/10/27 07:40:42;;;;;;;45.28;11.35;;;;;;;;;;5073820;28;20078;-75
2022/10/27 07:43:09;;;;;;;56.60;11.50;;;;;;;;;;5073704;28;20401;-75
2022/10/27 07:45:36;;;;;;;14.27;8.02;;;;;;;;;;5072726;28;20056;-75
2022/10/27 07:48:03;;;;;;;14.45;7.15;;;;;;;;;;5073716;28;20028;-75
2022/10/27 07:50:32;;;;;;;308.67;32.80;;;;;;;;;;5073345;28;20021;-75
2022/10/27 07:52:59;;;;;;;1364.88;169.63;;;;;;;;;;5074301;28;20031;-75
2022/10/27 07:55:27;;;;;;;15.07;7.43;;;;;;;;;;5073988;28;20035;-75
2022/10/27 07:58:00;;;;;;;57.08;13.18;;;;;;;;;;5074117;28;20032;-74
2022/10/27 08:00:27;;;;;;;23.77;8.18;;;;;;;;;;5074007;28;20029;-74
2022/10/27 08:02:53;;;;;;;26.52;8.75;;;;;;;;;;5073281;28;20028;-74
2022/10/27 08:05:20;;;;;;;13.68;7.05;;;;;;;;;;5072635;28;20038;-75
2022/10/27 08:07:46;;;;;;;22.30;7.90;;;;;;;;;;5073568;28;20040;-78
2022/10/27 08:10:12;;;;;;;42.15;10.30;;;;;;;;;;5072300;28;20081;-75
2022/10/27 08:12:42;;;;;;;34.80;9.50;;;;;;;;;;5073594;28;20032;-73
2022/10/27 08:15:09;;;;;;;22.63;8.43;;;;;;;;;;5073735;28;20507;-73
2022/10/27 08:17:35;;;;;;;14.48;7.30;;;;;;;;;;5072072;28;20032;-74
2022/10/27 08:20:02;;;;;;;11.48;7.32;;;;;;;;;;5073255;28;20024;-75
2022/10/27 08:22:28;;;;;;;12.93;7.55;;;;;;;;;;5073607;28;20032;-75
2022/10/27 08:24:54;;;;;;;14.73;8.32;;;;;;;;;;5073415;28;20019;-72
2022/10/27 08:27:21;;;;;;;24.05;8.00;;;;;;;;;;5072968;28;20028;-71
2022/10/27 08:29:47;;;;;;;24.27;7.85;;;;;;;;;;5073459;28;20073;-71
2022/10/27 08:32:15;;;;;;;23.42;6.50;;;;;;;;;;5072962;28;20432;-71
2022/10/27 08:34:41;;;;;;;11.57;6.18;;;;;;;;;;5073110;28;20489;-72
2022/10/27 08:37:07;;;;;;;19.45;6.93;;;;;;;;;;5073267;28;20028;-72
2022/10/27 08:39:34;;;;;;;15.82;6.03;;;;;;;;;;5073002;28;20016;-72
2022/10/27 08:42:00;;;;;;;164.68;15.32;;;;;;;;;;5073029;28;20051;-72
2022/10/27 08:44:33;;;;;;;18.23;5.55;;;;;;;;;;5073341;28;20021;-72
2022/10/27 08:47:07;;;;;;;13.40;6.60;;;;;;;;;;5072418;28;20024;-71
2022/10/27 08:49:39;;;;;;;14.73;5.82;;;;;;;;;;5072107;28;20033;-72
2022/10/27 08:52:11;;;;;;;16.88;6.13;;;;;;;;;;5072802;28;20042;-71
2022/10/27 08:54:38;;;;;;;11.05;5.90;;;;;;;;;;5072806;28;20496;-72
2022/10/27 08:57:05;;;;;;;15.38;5.78;;;;;;;;;;5072591;28;20038;-72
2022/10/27 08:59:33;;;;;;;16.30;5.57;;;;;;;;;;5072969;28;20024;-71
2022/10/27 09:01:59;;;;;;;12.90;5.57;;;;;;;;;;5072287;28;20020;-72
2022/10/27 09:04:35;;;;;;;12.68;5.47;;;;;;;;;;5072642;28;20474;-72
2022/10/27 09:07:07;;;;;;;10.07;4.80;;;;;;;;;;5072272;28;20058;-72
2022/10/27 09:09:45;;;;;;;16.55;5.10;;;;;;;;;;5072463;28;20013;-72
2022/10/27 09:12:27;;;;;;;8.02;4.43;;;;;;;;;;5072048;28;20033;-72
2022/10/27 09:15:12;;;;;;;10.07;4.65;;;;;;;;;;5070655;28;20047;-72
2022/10/27 09:17:42;;;;;;;11.07;5.53;;;;;;;;;;5072582;28;20036;-72
2022/10/27 09:20:15;;;;;;;16.08;5.00;;;;;;;;;;5070805;28;20024;-72
2022/10/27 09:22:42;;;;;;;15.27;5.60;;;;;;;;;;5072209;28;20025;-72
2022/10/27 09:25:19;;;;;;;11.90;4.80;;;;;;;;;;5072145;28;20031;-72
2022/10/27 09:27:47;;;;;;;8.75;4.18;;;;;;;;;;5072040;28;20036;-72
2022/10/27 09:30:14;;;;;;;14.77;5.07;;;;;;;;;;5071958;28;20020;-72
2022/10/27 09:32:40;;;;;;;55.28;7.15;;;;;;;;;;5072078;28;20408;-72
2022/10/27 09:35:11;;;;;;;10.48;4.35;;;;;;;;;;5072064;28;20028;-73
2022/10/27 09:37:39;;;;;;;10.13;4.10;;;;;;;;;;5070664;28;20427;-72
2022/10/27 09:40:16;;;;;;;18.88;4.95;;;;;;;;;;5071938;28;20029;-72
2022/10/27 09:42:43;;;;;;;12.98;4.97;;;;;;;;;;5071830;28;20025;-72
2022/10/27 09:45:20;;;;;;;11.82;4.50;;;;;;;;;;5071404;28;20020;-72
2022/10/27 09:47:48;;;;;;;26.63;6.28;;;;;;;;;;5072096;28;20044;-72
2022/10/27 09:50:23;;;;;;;33.38;6.07;;;;;;;;;;5070457;28;20025;-72
2022/10/27 09:52:50;;;;;;;59.17;12.05;;;;;;;;;;5071552;28;20029;-72
2022/10/27 09:55:16;;;;;;;24.10;8.80;;;;;;;;;;5069549;28;20028;-73
2022/10/27 09:57:43;;;;;;;20.58;9.20;;;;;;;;;;5071915;28;20028;-72
2022/10/27 10:00:16;;;;;;;121.47;20.20;;;;;;;;;;5070301;28;20019;-73
2022/10/27 10:02:57;;;;;;;51.72;11.82;;;;;;;;;;5071544;28;20036;-71
2022/10/27 10:05:25;;;;;;;24.23;11.95;;;;;;;;;;5071328;28;20012;-72
2022/10/27 10:07:51;;;;;;;22.95;10.07;;;;;;;;;;5071405;28;20040;-73
2022/10/27 10:10:25;;;;;;;19.65;9.80;;;;;;;;;;5070090;28;20408;-73
2022/10/27 10:12:57;;;;;;;23.02;9.40;;;;;;;;;;5071008;28;20055;-72
2022/10/27 10:15:24;;;;;;;27.15;9.75;;;;;;;;;;5071142;28;20031;-73
2022/10/27 10:17:55;;;;;;;15.40;7.35;;;;;;;;;;5071295;28;20515;-73
2022/10/27 10:20:28;;;;;;;15.93;6.45;;;;;;;;;;5051395;28;20025;-73
2022/10/27 10:22:55;;;;;;;16.08;6.68;;;;;;;;;;5061091;28;20032;-73
2022/10/27 10:25:27;;;;;;;17.20;4.82;;;;;;;;;;5071155;28;20024;-73
2022/10/27 10:28:02;;;;;;;15.32;5.22;;;;;;;;;;5070797;28;20036;-73
2022/10/27 10:30:30;;;;;;;15.70;4.90;;;;;;;;;;5071384;28;20025;-73
2022/10/27 10:32:56;;;;;;;11.20;5.00;;;;;;;;;;5069480;28;20036;-73
2022/10/27 10:35:42;;;;;;;14.57;4.70;;;;;;;;;;5070512;28;20028;-73
2022/10/27 10:38:23;;;;;;;12.32;5.13;;;;;;;;;;5070663;28;20017;-73
2022/10/27 10:41:09;;;;;;;17.10;5.63;;;;;;;;;;5070690;28;20485;-73
2022/10/27 10:43:35;;;;;;;16.85;4.85;;;;;;;;;;5070520;28;20039;-73
2022/10/27 10:46:02;;;;;;;15.50;4.68;;;;;;;;;;5070667;28;20017;-73
2022/10/27 10:48:29;;;;;;;16.75;5.20;;;;;;;;;;5070665;28;20040;-73
2022/10/27 10:50:56;;;;;;;22.52;5.10;;;;;;;;;;5070603;28;20431;-73
2022/10/27 10:53:27;;;;;;;15.95;4.78;;;;;;;;;;5070586;28;20032;-73
2022/10/27 10:55:55;;;;;;;12.82;4.97;;;;;;;;;;5070304;28;20027;-72
2022/10/27 10:58:23;;;;;;;16.45;4.90;;;;;;;;;;5070479;28;20028;-73
2022/10/27 11:00:57;;;;;;;15.00;4.75;;;;;;;;;;5070873;28;20032;-72
2022/10/27 11:03:24;;;;;;;16.70;5.72;;;;;;;;;;5071393;28;20039;-73
2022/10/27 11:05:52;;;;;;;17.45;5.07;;;;;;;;;;5072167;28;20035;-73
2022/10/27 11:08:29;;;;;;;17.65;5.32;;;;;;;;;;5071757;28;20033;-73
2022/10/27 11:10:57;;;;;;;16.85;5.50;;;;;;;;;;5071464;28;20102;-72
2022/10/27 11:13:26;;;;;;;19.98;5.28;;;;;;;;;;5074039;28;20042;-72
2022/10/27 11:15:52;;;;;;;16.67;5.00;;;;;;;;;;5075983;28;20085;-72
2022/10/27 11:18:21;;;;;;;29.45;4.90;;;;;;;;;;5075793;28;20481;-73
2022/10/27 11:20:52;;;;;;;22.80;5.40;;;;;;;;;;5075791;28;20024;-72
2022/10/27 11:23:20;;;;;;;21.90;5.47;;;;;;;;;;5075810;28;20027;-72
2022/10/27 11:25:47;;;;;;;22.00;5.15;;;;;;;;;;5075332;28;20416;-73
2022/10/27 11:28:17;;;;;;;19.70;5.55;;;;;;;;;;5075727;28;20032;-73
2022/10/27 11:30:47;;;;;;;15.40;4.03;;;;;;;;;;5075603;28;20036;-73
2022/10/27 11:33:34;;;;;;;15.27;4.95;;;;;;;;;;5075417;28;20035;-73
2022/10/27 11:36:21;;;;;;;17.90;5.47;;;;;;;;;;5033412;28;20501;-73
2022/10/27 11:38:59;;;;;;;19.48;5.10;;;;;;;;;;5033551;28;20508;-73
2022/10/27 11:41:33;;;;;;;17.98;5.15;;;;;;;;;;5033295;28;20045;-73
2022/10/27 11:44:05;;;;;;;18.88;5.30;;;;;;;;;;5033127;28;20014;-73
2022/10/27 11:47:03;;;;;;;20.95;6.07;;;;;;;;;;5033437;28;20037;-73
2022/10/27 11:49:50;;;;;;;14.40;4.80;;;;;;;;;;5053475;28;20125;-73
2022/10/27 11:52:31;;;;;;;17.90;4.70;;;;;;;;;;5053062;28;20029;-73
2022/10/27 11:54:58;;;;;;;20.35;4.60;;;;;;;;;;5036203;28;20041;-73
2022/10/27 11:57:39;;;;;;;14.30;4.57;;;;;;;;;;5052806;28;20066;-73
2022/10/27 12:00:12;;;;;;;19.63;4.82;;;;;;;;;;5035943;28;20082;-73
2022/10/27 12:02:56;;;;;;;15.48;4.13;;;;;;;;;;5023153;28;20033;-73
2022/10/27 12:05:25;;;;;;;17.45;4.55;;;;;;;;;;5020207;28;20048;-73
2022/10/27 12:08:02;;;;;;;17.35;4.32;;;;;;;;;;5030197;28;20033;-73
2022/10/27 12:10:31;;;;;;;22.33;5.20;;;;;;;;;;5027584;28;20031;-74
2022/10/27 12:13:11;;;;;;;25.92;5.78;;;;;;;;;;5030425;28;20037;-73
2022/10/27 12:15:37;;;;;;;20.97;4.47;;;;;;;;;;5030566;28;20045;-74
2022/10/27 12:18:10;;;;;;;13.45;4.95;;;;;;;;;;5029428;28;20029;-74
2022/10/27 12:20:42;;;;;;;19.33;5.68;;;;;;;;;;5027788;28;20409;-74
2022/10/27 12:23:12;;;;;;;18.38;4.57;;;;;;;;;;5029391;28;20028;-73
2022/10/27 12:25:44;;;;;;;24.00;4.95;;;;;;;;;;5060470;28;20047;-73
2022/10/27 12:28:13;;;;;;;18.90;5.72;;;;;;;;;;5072611;28;20050;-74
2022/10/27 12:30:42;;;;;;;15.90;5.20;;;;;;;;;;5063338;28;20056;-73
2022/10/27 12:33:08;;;;;;;18.63;5.15;;;;;;;;;;5072642;28;20025;-73
2022/10/27 12:35:40;;;;;;;18.15;4.85;;;;;;;;;;5072766;28;20027;-74
2022/10/27 12:38:16;;;;;;;15.48;4.30;;;;;;;;;;5072090;28;20029;-73
2022/10/27 12:41:20;;;;;;;19.48;4.95;;;;;;;;;;5072539;28;20463;-73
2022/10/27 12:43:58;;;;;;;18.67;5.72;;;;;;;;;;5066827;28;20021;-73
2022/10/27 12:46:24;;;;;;;18.92;5.20;;;;;;;;;;5049440;28;20036;-73
2022/10/27 12:49:06;;;;;;;25.88;5.38;;;;;;;;;;5049317;28;20045;-74
2022/10/27 12:51:58;;;;;;;19.88;4.40;;;;;;;;;;5049802;28;20478;-74
2022/10/27 12:54:35;;;;;;;18.13;5.18;;;;;;;;;;5043022;28;20041;-73
2022/10/27 12:57:04;;;;;;;17.05;4.65;;;;;;;;;;5049889;28;20540;-74
2022/10/27 12:59:45;;;;;;;17.83;5.32;;;;;;;;;;5048748;28;20531;-74
2022/10/27 13:02:12;;;;;;;15.52;4.22;;;;;;;;;;5049950;28;20037;-74
2022/10/27 13:04:57;;;;;;;17.70;4.90;;;;;;;;;;5047953;28;20043;-74
2022/10/27 13:07:42;;;;;;;15.75;4.93;;;;;;;;;;5049407;28;20094;-74
2022/10/27 13:10:28;;;;;;;15.32;5.07;;;;;;;;;;5049554;28;20032;-74
2022/10/27 13:13:02;;;;;;;22.85;5.55;;;;;;;;;;5036476;28;20043;-74
2022/10/27 13:15:34;;;;;;;18.92;4.97;;;;;;;;;;5068986;28;20074;-73
2022/10/27 13:18:10;;;;;;;18.50;5.03;;;;;;;;;;5071791;28;20485;-73
2022/10/27 13:20:55;;;;;;;17.85;5.22;;;;;;;;;;5071830;28;20577;-73
2022/10/27 13:23:40;;;;;;;25.20;5.28;;;;;;;;;;5071294;28;20036;-73
2022/10/27 13:26:26;;;;;;;19.20;6.15;;;;;;;;;;5070412;28;20025;-73
2022/10/27 13:29:11;;;;;;;23.15;5.50;;;;;;;;;;5070823;28;20036;-73
2022/10/27 13:31:38;;;;;;;17.35;4.97;;;;;;;;;;5069525;28;20024;-73
2022/10/27 13:34:08;;;;;;;17.38;5.43;;;;;;;;;;5071635;28;20020;-73
2022/10/27 13:36:35;;;;;;;21.77;6.13;;;;;;;;;;5070777;28;20033;-72
2022/10/27 13:39:13;;;;;;;18.38;4.93;;;;;;;;;;5070433;28;20497;-73
2022/10/27 13:41:47;;;;;;;26.10;5.25;;;;;;;;;;5068634;28;20027;-73
2022/10/27 13:44:26;;;;;;;20.75;5.20;;;;;;;;;;5070339;28;20034;-73
2022/10/27 13:47:02;;;;;;;28.65;5.25;;;;;;;;;;5072052;28;20031;-73
2022/10/27 13:49:40;;;;;;;24.90;5.05;;;;;;;;;;5071178;28;20032;-73
2022/10/27 13:52:10;;;;;;;29.92;5.55;;;;;;;;;;5071621;28;20035;-72
2022/10/27 13:54:52;;;;;;;23.80;5.10;;;;;;;;;;5071512;28;20032;-72
2022/10/27 13:57:37;;;;;;;21.42;4.97;;;;;;;;;;5068684;28;20025;-72
2022/10/27 14:00:14;;;;;;;18.00;4.72;;;;;;;;;;5071209;28;20481;-73
2022/10/27 14:03:00;;;;;;;17.58;4.90;;;;;;;;;;5050798;28;20389;-72
2022/10/27 14:05:39;;;;;;;20.55;4.82;;;;;;;;;;5050612;28;20029;-73
2022/10/27 14:08:15;;;;;;;24.98;4.85;;;;;;;;;;5049999;28;20040;-72
2022/10/27 14:10:41;;;;;;;21.63;5.15;;;;;;;;;;5051206;28;20043;-72
2022/10/27 14:13:14;;;;;;;16.13;5.70;;;;;;;;;;5050951;28;20033;-73
2022/10/27 14:15:41;;;;;;;19.55;5.25;;;;;;;;;;5050951;28;20036;-72
2022/10/27 14:18:17;;;;;;;19.13;5.47;;;;;;;;;;5052453;28;20036;-73
2022/10/27 14:20:44;;;;;;;22.52;5.40;;;;;;;;;;5081056;28;20028;-74
2022/10/27 14:23:12;;;;;;;24.50;5.53;;;;;;;;;;5090846;28;20028;-73
2022/10/27 14:25:38;;;;;;;21.20;5.78;;;;;;;;;;5090732;28;20031;-72
2022/10/27 14:28:08;;;;;;;18.50;5.50;;;;;;;;;;5090713;28;20407;-72
2022/10/27 14:30:34;;;;;;;22.88;5.95;;;;;;;;;;5089565;28;20023;-73
2022/10/27 14:33:17;;;;;;;24.10;5.50;;;;;;;;;;5090667;28;20032;-73
2022/10/27 14:35:43;;;;;;;17.13;5.75;;;;;;;;;;5090720;28;20028;-72
2022/10/27 14:38:18;;;;;;;22.30;5.65;;;;;;;;;;5090151;28;20031;-72